createdAt,value
2022-10-07T00:01:11.218Z,76.18
2022-10-07T00:03:41.645Z,76.36
2022-10-07T00:06:13.202Z,76.18
2022-10-07T00:08:43.042Z,76.35
2022-10-07T00:11:13.011Z,76.31
2022-10-07T00:13:42.675Z,77.01
2022-10-07T00:16:13.786Z,77.12
2022-10-07T00:18:43.494Z,77.74
2022-10-07T00:21:14.641Z,77.42
2022-10-07T00:23:43.857Z,77.33
2022-10-07T00:26:13.687Z,77.24
2022-10-07T00:28:41.904Z,77.44
2022-10-07T00:31:13.365Z,77.34
2022-10-07T00:33:43.756Z,77.37
2022-10-07T00:36:16.993Z,77.19
2022-10-07T00:38:45.218Z,77.95
2022-10-07T00:41:19.214Z,78.09
2022-10-07T00:43:48.066Z,78.26
2022-10-07T00:46:24.705Z,78.49
2022-10-07T00:48:55.463Z,78.33
2022-10-07T00:51:23.945Z,78.27
2022-10-07T00:53:56.756Z,78.25
2022-10-07T00:56:28.052Z,78.44
2022-10-07T00:58:56.937Z,78.35
2022-10-07T01:01:25.544Z,78.26
2022-10-07T01:03:55.878Z,78.16
2022-10-07T01:06:24.851Z,78.34
2022-10-07T01:08:55.611Z,78.04
2022-10-07T01:11:36.661Z,77.97
2022-10-07T01:14:10.559Z,77.84
2022-10-07T01:16:48.486Z,77.95
2022-10-07T01:19:44.044Z,78.17
2022-10-07T01:22:23.289Z,78.26
2022-10-07T01:25:04.571Z,78.50
2022-10-07T01:27:37.146Z,78.11
2022-10-07T01:30:08.807Z,78.23
2022-10-07T01:32:41.932Z,77.97
2022-10-07T01:35:15.091Z,78.16
2022-10-07T01:37:48.704Z,78.55
2022-10-07T01:40:21.751Z,78.42
2022-10-07T01:42:52.049Z,78.21
2022-10-07T01:45:23.869Z,78.63
2022-10-07T01:47:53.121Z,78.44
2022-10-07T01:50:26.535Z,78.63
2022-10-07T01:53:12.920Z,78.83
2022-10-07T01:55:55.503Z,78.48
2022-10-07T01:58:40.115Z,78.45
2022-10-07T02:01:23.980Z,78.20
2022-10-07T02:04:08.380Z,78.34
2022-10-07T02:06:44.558Z,78.27
2022-10-07T02:09:24.180Z,78.43
2022-10-07T02:11:57.550Z,78.41
2022-10-07T02:14:38.397Z,78.31
2022-10-07T02:17:11.404Z,78.35
2022-10-07T02:19:45.237Z,78.72
2022-10-07T02:22:14.814Z,78.74
2022-10-07T02:24:45.213Z,79.06
2022-10-07T02:27:18.068Z,79.42
2022-10-07T02:29:49.948Z,79.47
2022-10-07T02:32:21.881Z,79.33
2022-10-07T02:34:54.741Z,79.50
2022-10-07T02:37:27.156Z,79.69
2022-10-07T02:39:57.415Z,79.69
2022-10-07T02:42:33.789Z,79.89
2022-10-07T02:45:13.481Z,79.81
2022-10-07T02:47:48.202Z,79.58
2022-10-07T02:50:22.706Z,79.66
2022-10-07T02:52:55.958Z,79.02
2022-10-07T02:55:27.373Z,79.23
2022-10-07T02:58:00.187Z,79.29
2022-10-07T03:00:32.930Z,79.34
2022-10-07T03:03:03.299Z,79.16
2022-10-07T03:05:31.537Z,79.38
2022-10-07T03:08:04.022Z,79.41
2022-10-07T03:10:32.212Z,79.33
2022-10-07T03:13:00.469Z,79.26
2022-10-07T03:15:29.965Z,79.45
2022-10-07T03:17:58.138Z,79.73
2022-10-07T03:20:26.215Z,79.69
2022-10-07T03:22:54.357Z,79.04
2022-10-07T03:25:22.489Z,78.55
2022-10-07T03:27:50.529Z,78.18
2022-10-07T03:30:24.272Z,77.73
2022-10-07T03:32:55.103Z,77.29
2022-10-07T03:35:23.190Z,77.48
2022-10-07T03:37:51.292Z,77.42
2022-10-07T03:40:19.390Z,77.53
2022-10-07T03:42:48.101Z,77.80
2022-10-07T03:45:16.191Z,77.77
2022-10-07T03:47:44.514Z,77.88
2022-10-07T03:50:14.231Z,78.04
2022-10-07T03:52:42.478Z,78.12
2022-10-07T03:55:11.052Z,77.86
2022-10-07T03:57:55.476Z,78.12
2022-10-07T04:00:28.300Z,78.37
2022-10-07T04:02:56.787Z,78.44
2022-10-07T04:05:26.524Z,78.51
2022-10-07T04:07:54.836Z,78.25
2022-10-07T04:10:22.995Z,77.89
2022-10-07T04:12:51.455Z,77.72
2022-10-07T04:15:20.256Z,78.05
2022-10-07T04:17:49.888Z,77.97
2022-10-07T04:20:18.532Z,77.91
2022-10-07T04:22:48.095Z,77.46
2022-10-07T04:25:33.723Z,77.13
2022-10-07T04:28:03.709Z,77.15
2022-10-07T04:30:34.915Z,76.68
2022-10-07T04:33:03.841Z,76.04
2022-10-07T04:35:31.951Z,75.30
2022-10-07T04:38:01.511Z,75.12
2022-10-07T04:40:31.360Z,74.12
2022-10-07T04:43:17.103Z,73.78
2022-10-07T04:45:45.265Z,73.37
2022-10-07T04:48:13.660Z,73.29
2022-10-07T04:50:42.054Z,72.98
2022-10-07T04:53:14.449Z,72.34
2022-10-07T04:55:44.039Z,71.13
2022-10-07T04:58:12.448Z,71.15
2022-10-07T05:00:45.860Z,70.42
2022-10-07T05:03:14.835Z,70.17
2022-10-07T05:05:44.373Z,69.74
2022-10-07T05:08:14.483Z,69.47
2022-10-07T05:10:43.679Z,69.32
2022-10-07T05:13:14.603Z,68.47
2022-10-07T05:15:50.076Z,68.09
2022-10-07T05:18:19.457Z,67.51
2022-10-07T05:20:48.565Z,66.56
2022-10-07T05:23:22.298Z,66.67
2022-10-07T05:25:59.482Z,66.46
2022-10-07T05:28:28.140Z,66.14
2022-10-07T05:31:04.157Z,66.47
2022-10-07T05:33:32.672Z,66.16
2022-10-07T05:36:01.332Z,65.39
2022-10-07T05:38:30.897Z,65.24
2022-10-07T05:41:00.622Z,64.66
2022-10-07T05:43:29.895Z,63.74
2022-10-07T05:46:02.548Z,62.60
2022-10-07T05:48:36.629Z,62.11
2022-10-07T05:51:07.753Z,61.60
2022-10-07T05:53:41.359Z,62.61
2022-10-07T05:56:11.020Z,63.45
2022-10-07T05:58:40.005Z,63.89
2022-10-07T06:01:13.933Z,63.22
2022-10-07T06:03:42.556Z,64.05
2022-10-07T06:06:11.322Z,63.52
2022-10-07T06:08:41.118Z,63.99
2022-10-07T06:11:29.561Z,64.45
2022-10-07T06:13:58.089Z,62.69
2022-10-07T06:16:27.124Z,62.51
2022-10-07T06:18:56.048Z,60.70
2022-10-07T06:21:28.390Z,59.51
2022-10-07T06:23:59.126Z,58.31
2022-10-07T06:26:27.297Z,57.01
2022-10-07T06:28:55.412Z,57.51
2022-10-07T06:31:25.801Z,58.40
2022-10-07T06:33:54.408Z,56.16
2022-10-07T06:36:22.607Z,56.22
2022-10-07T06:38:52.858Z,56.68
2022-10-07T06:41:23.616Z,58.72
2022-10-07T06:43:57.431Z,57.90
2022-10-07T06:46:25.700Z,58.45
2022-10-07T06:48:54.172Z,58.51
2022-10-07T06:51:23.407Z,58.60
2022-10-07T06:53:53.956Z,57.75
2022-10-07T06:56:23.434Z,57.26
2022-10-07T06:58:51.732Z,55.97
2022-10-07T07:01:20.288Z,56.05
2022-10-07T07:03:48.885Z,57.32
2022-10-07T07:06:17.047Z,56.34
2022-10-07T07:08:46.083Z,57.60
2022-10-07T07:11:32.818Z,57.33
2022-10-07T07:14:03.653Z,57.93
2022-10-07T07:16:32.177Z,57.36
2022-10-07T07:19:03.039Z,57.15
2022-10-07T07:21:31.760Z,57.83
2022-10-07T07:24:01.418Z,56.91
2022-10-07T07:26:30.648Z,57.32
2022-10-07T07:29:01.414Z,57.19
2022-10-07T07:31:33.219Z,55.11
2022-10-07T07:34:04.023Z,55.27
2022-10-07T07:36:33.337Z,54.82
2022-10-07T07:39:03.982Z,53.57
2022-10-07T07:41:35.260Z,52.75
2022-10-07T07:44:07.320Z,51.76
2022-10-07T07:46:41.808Z,51.13
2022-10-07T07:49:11.016Z,50.97
2022-10-07T07:51:39.939Z,50.10
2022-10-07T07:54:07.974Z,50.90
2022-10-07T07:56:36.149Z,50.78
2022-10-07T07:59:06.185Z,50.81
2022-10-07T08:01:35.538Z,49.72
2022-10-07T08:04:06.494Z,48.98
2022-10-07T08:06:35.312Z,49.42
2022-10-07T08:09:03.619Z,50.00
2022-10-07T08:11:33.096Z,49.30
2022-10-07T08:14:03.286Z,49.27
2022-10-07T08:16:32.345Z,49.62
2022-10-07T08:19:10.168Z,49.24
2022-10-07T08:21:38.556Z,49.34
2022-10-07T08:24:09.952Z,49.74
2022-10-07T08:26:38.903Z,50.73
2022-10-07T08:29:07.046Z,49.02
2022-10-07T08:31:35.800Z,48.36
2022-10-07T08:34:06.454Z,48.05
2022-10-07T08:36:35.984Z,48.47
2022-10-07T08:39:05.783Z,48.02
2022-10-07T08:41:57.855Z,49.07
2022-10-07T08:44:29.971Z,48.31
2022-10-07T08:47:06.420Z,47.88
2022-10-07T08:49:40.449Z,49.05
2022-10-07T08:52:26.612Z,49.21
2022-10-07T08:54:54.883Z,49.21
2022-10-07T08:57:38.835Z,48.43
2022-10-07T09:00:09.199Z,47.97
2022-10-07T09:02:52.650Z,48.08
2022-10-07T09:05:26.413Z,47.81
2022-10-07T09:07:59.999Z,47.83
2022-10-07T09:10:34.349Z,47.13
2022-10-07T09:13:05.905Z,46.49
2022-10-07T09:15:42.653Z,46.38
2022-10-07T09:18:20.429Z,46.27
2022-10-07T09:20:53.731Z,46.02
2022-10-07T09:23:26.158Z,45.96
2022-10-07T09:25:54.318Z,46.50
2022-10-07T09:28:27.440Z,47.40
2022-10-07T09:30:55.748Z,46.52
2022-10-07T09:33:28.022Z,46.82
2022-10-07T09:35:58.395Z,45.73
2022-10-07T09:38:34.110Z,45.51
2022-10-07T09:41:17.531Z,45.17
2022-10-07T09:43:57.170Z,45.19
2022-10-07T09:46:53.528Z,45.36
2022-10-07T09:49:32.837Z,46.09
2022-10-07T09:52:02.400Z,45.52
2022-10-07T09:54:34.023Z,45.89
2022-10-07T09:57:04.248Z,45.13
2022-10-07T09:59:33.805Z,45.86
2022-10-07T10:02:13.070Z,45.21
2022-10-07T10:04:48.390Z,45.10
2022-10-07T10:07:21.435Z,44.84
2022-10-07T10:09:53.207Z,45.72
2022-10-07T10:12:22.967Z,44.65
2022-10-07T10:14:53.785Z,45.27
2022-10-07T10:17:34.657Z,44.44
2022-10-07T10:20:36.140Z,44.62
2022-10-07T10:23:25.273Z,44.56
2022-10-07T10:26:22.691Z,44.43
2022-10-07T10:29:00.805Z,44.84
2022-10-07T10:31:39.803Z,43.62
2022-10-07T10:34:28.010Z,44.14
2022-10-07T10:37:03.479Z,43.17
2022-10-07T10:39:44.888Z,44.07
2022-10-07T10:42:21.487Z,44.12
2022-10-07T10:45:16.260Z,43.93
2022-10-07T10:47:56.489Z,43.86
2022-10-07T10:50:31.635Z,44.11
2022-10-07T10:53:11.281Z,44.56
2022-10-07T10:56:04.829Z,44.31
2022-10-07T10:58:47.752Z,45.78
2022-10-07T11:01:28.035Z,47.30
2022-10-07T11:04:21.643Z,47.41
2022-10-07T11:06:56.715Z,52.32
2022-10-07T11:09:34.969Z,54.20
2022-10-07T11:12:07.104Z,56.86
2022-10-07T11:14:48.606Z,59.01
2022-10-07T11:17:18.638Z,60.13
2022-10-07T11:19:57.627Z,61.85
2022-10-07T11:22:39.310Z,61.90
2022-10-07T11:25:18.943Z,62.18
2022-10-07T11:27:53.403Z,62.11
2022-10-07T11:30:24.771Z,62.55
2022-10-07T11:33:00.198Z,59.56
2022-10-07T11:35:32.865Z,61.30
2022-10-07T11:38:08.093Z,62.54
2022-10-07T11:40:42.534Z,62.79
2022-10-07T11:43:18.526Z,62.12
2022-10-07T11:45:52.654Z,63.56
2022-10-07T11:48:24.490Z,63.26
2022-10-07T11:50:56.315Z,65.65
2022-10-07T11:53:27.708Z,64.77
2022-10-07T11:56:01.147Z,68.64
2022-10-07T11:58:33.047Z,64.64
2022-10-07T12:01:48.577Z,65.97
2022-10-07T12:04:38.411Z,63.88
2022-10-07T12:07:36.994Z,67.41
2022-10-07T12:10:29.980Z,68.67
2022-10-07T12:13:01.146Z,66.55
2022-10-07T12:15:39.132Z,65.52
2022-10-07T12:18:28.570Z,68.46
2022-10-07T12:21:15.160Z,67.69
2022-10-07T12:23:44.918Z,66.96
2022-10-07T12:26:52.465Z,65.90
2022-10-07T12:29:33.699Z,67.13
2022-10-07T12:32:02.394Z,66.23
2022-10-07T12:34:38.846Z,67.44
2022-10-07T12:37:52.539Z,67.10
2022-10-07T12:40:31.154Z,65.42
2022-10-07T12:43:10.767Z,66.04
2022-10-07T12:45:43.556Z,66.31
2022-10-07T12:48:18.222Z,66.88
2022-10-07T12:50:50.972Z,67.49
2022-10-07T12:53:20.389Z,65.77
2022-10-07T12:55:50.505Z,66.18
2022-10-07T12:59:05.645Z,64.60
2022-10-07T13:01:48.038Z,66.71
2022-10-07T13:04:38.665Z,66.84
2022-10-07T13:07:40.863Z,60.93
2022-10-07T13:10:42.280Z,57.89
2022-10-07T13:13:16.454Z,57.19
2022-10-07T13:15:47.711Z,58.83
2022-10-07T13:18:21.990Z,55.33
2022-10-07T13:21:18.389Z,53.33
2022-10-07T13:23:52.782Z,52.19
2022-10-07T13:26:22.873Z,49.85
2022-10-07T13:28:53.721Z,49.00
2022-10-07T13:31:25.358Z,48.03
2022-10-07T13:33:54.861Z,48.44
2022-10-07T13:36:25.231Z,48.20
2022-10-07T13:39:10.528Z,47.53
2022-10-07T13:41:39.674Z,47.87
2022-10-07T13:44:07.994Z,48.04
2022-10-07T13:46:37.545Z,48.38
2022-10-07T13:49:06.551Z,46.82
2022-10-07T13:51:36.989Z,48.05
2022-10-07T13:54:09.414Z,49.31
2022-10-07T13:56:41.674Z,49.88
2022-10-07T13:59:16.037Z,52.33
2022-10-07T14:01:44.424Z,54.75
2022-10-07T14:04:20.993Z,57.59
2022-10-07T14:07:00.290Z,59.00
2022-10-07T14:09:44.053Z,61.17
2022-10-07T14:12:15.884Z,60.29
2022-10-07T14:14:46.321Z,60.25
2022-10-07T14:17:24.870Z,58.71
2022-10-07T14:19:54.926Z,58.60
2022-10-07T14:22:30.239Z,59.90
2022-10-07T14:25:03.105Z,61.70
2022-10-07T14:27:54.117Z,59.95
2022-10-07T14:30:51.989Z,58.03
2022-10-07T14:33:44.226Z,58.89
2022-10-07T14:36:14.396Z,58.38
2022-10-07T14:38:43.303Z,59.52
2022-10-07T14:41:13.788Z,60.21
2022-10-07T14:43:46.334Z,61.27
2022-10-07T14:46:19.019Z,62.47
2022-10-07T14:48:47.872Z,64.07
2022-10-07T14:51:18.731Z,64.97
2022-10-07T14:53:50.297Z,65.74
2022-10-07T14:56:26.770Z,66.72
2022-10-07T14:58:56.318Z,66.29
2022-10-07T15:01:24.570Z,66.55
2022-10-07T15:03:52.849Z,68.22
2022-10-07T15:06:21.910Z,68.90
2022-10-07T15:08:50.307Z,69.23
2022-10-07T15:11:21.901Z,67.13
2022-10-07T15:13:51.039Z,66.46
2022-10-07T15:16:21.507Z,67.59
2022-10-07T15:18:52.772Z,67.79
2022-10-07T15:21:22.074Z,68.20
2022-10-07T15:23:52.804Z,68.68
2022-10-07T15:26:24.691Z,70.23
2022-10-07T15:28:55.289Z,71.70
2022-10-07T15:31:24.466Z,71.92
2022-10-07T15:33:57.985Z,72.96
2022-10-07T15:36:29.174Z,73.22
2022-10-07T15:39:02.094Z,73.95
2022-10-07T15:41:34.564Z,73.39
2022-10-07T15:44:04.775Z,72.83
2022-10-07T15:46:33.074Z,72.87
2022-10-07T15:49:01.692Z,72.38
2022-10-07T15:51:31.197Z,72.53
2022-10-07T15:53:59.650Z,72.31
2022-10-07T15:56:27.851Z,72.91
2022-10-07T15:58:58.685Z,73.41
2022-10-07T16:01:28.738Z,73.30
2022-10-07T16:03:57.149Z,73.10
2022-10-07T16:06:27.024Z,73.21
2022-10-07T16:08:56.894Z,73.21
2022-10-07T16:11:26.250Z,73.81
2022-10-07T16:13:54.530Z,73.57
2022-10-07T16:16:26.366Z,73.68
2022-10-07T16:18:56.009Z,73.27
2022-10-07T16:21:28.014Z,73.35
2022-10-07T16:23:58.896Z,73.27
2022-10-07T16:26:30.393Z,72.82
2022-10-07T16:29:18.755Z,72.66
2022-10-07T16:31:49.320Z,72.28
2022-10-07T16:34:19.815Z,71.72
2022-10-07T16:36:49.243Z,71.77
2022-10-07T16:39:19.164Z,71.53
2022-10-07T16:41:48.385Z,70.55
2022-10-07T16:44:17.159Z,69.32
2022-10-07T16:46:45.338Z,68.81
2022-10-07T16:49:17.850Z,67.50
2022-10-07T16:51:46.870Z,66.38
2022-10-07T16:54:17.438Z,65.47
2022-10-07T16:56:48.244Z,64.43
2022-10-07T16:59:22.526Z,63.80
2022-10-07T17:01:52.972Z,63.75
2022-10-07T17:04:23.042Z,62.95
2022-10-07T17:06:51.210Z,61.86
2022-10-07T17:09:19.726Z,60.82
2022-10-07T17:11:48.099Z,59.66
2022-10-07T17:14:18.329Z,58.58
2022-10-07T17:16:48.167Z,58.00
2022-10-07T17:19:18.883Z,57.50
2022-10-07T17:21:50.282Z,57.45
2022-10-07T17:24:20.584Z,57.53
2022-10-07T17:26:49.027Z,57.64
2022-10-07T17:29:19.529Z,57.71
2022-10-07T17:31:50.634Z,57.60
2022-10-07T17:34:20.720Z,57.91
2022-10-07T17:36:51.695Z,57.72
2022-10-07T17:39:20.318Z,57.79
2022-10-07T17:41:48.869Z,58.27
2022-10-07T17:44:17.390Z,58.32
2022-10-07T17:46:45.660Z,58.28
2022-10-07T17:49:14.544Z,57.94
2022-10-07T17:51:44.093Z,58.38
2022-10-07T17:54:14.651Z,58.29
2022-10-07T17:56:45.208Z,58.46
2022-10-07T17:59:14.416Z,58.73
2022-10-07T18:01:42.999Z,58.44
2022-10-07T18:04:13.549Z,58.02
2022-10-07T18:06:43.415Z,58.23
2022-10-07T18:09:18.692Z,58.27
2022-10-07T18:12:04.541Z,58.92
2022-10-07T18:14:53.508Z,58.90
2022-10-07T18:17:22.596Z,58.92
2022-10-07T18:19:50.664Z,58.28
2022-10-07T18:22:19.413Z,57.84
2022-10-07T18:24:49.835Z,57.54
2022-10-07T18:27:17.931Z,56.75
2022-10-07T18:29:46.083Z,56.66
2022-10-07T18:32:14.184Z,56.34
2022-10-07T18:34:42.320Z,55.93
2022-10-07T18:37:10.731Z,55.90
2022-10-07T18:39:39.081Z,55.70
2022-10-07T18:42:08.749Z,55.24
2022-10-07T18:44:36.957Z,55.44
2022-10-07T18:47:05.221Z,55.53
2022-10-07T18:49:33.281Z,55.84
2022-10-07T18:52:01.511Z,56.22
2022-10-07T18:54:30.030Z,56.94
2022-10-07T18:56:58.134Z,57.73
2022-10-07T18:59:27.975Z,58.59
2022-10-07T19:01:56.219Z,59.28
2022-10-07T19:04:24.446Z,60.35
2022-10-07T19:06:52.591Z,60.89
2022-10-07T19:09:22.333Z,61.45
2022-10-07T19:11:51.030Z,62.05
2022-10-07T19:14:18.346Z,62.56
2022-10-07T19:16:50.151Z,63.44
2022-10-07T19:19:20.322Z,63.94
2022-10-07T19:21:50.728Z,64.11
2022-10-07T19:24:19.073Z,64.86
2022-10-07T19:26:49.995Z,65.28
2022-10-07T19:29:19.376Z,66.07
2022-10-07T19:31:50.219Z,66.64
2022-10-07T19:34:21.195Z,67.27
2022-10-07T19:36:50.059Z,67.78
2022-10-07T19:39:20.070Z,67.76
2022-10-07T19:41:48.919Z,67.99
2022-10-07T19:44:17.341Z,68.32
2022-10-07T19:46:45.582Z,68.69
2022-10-07T19:49:15.342Z,68.76
2022-10-07T19:51:44.880Z,69.21
2022-10-07T19:54:13.211Z,69.44
2022-10-07T19:56:42.235Z,69.81
2022-10-07T19:59:12.246Z,70.49
2022-10-07T20:01:42.573Z,70.52
2022-10-07T20:04:13.399Z,70.58
2022-10-07T20:06:43.273Z,71.19
2022-10-07T20:09:14.051Z,71.45
2022-10-07T20:11:42.530Z,71.86
2022-10-07T20:14:11.483Z,72.65
2022-10-07T20:16:40.138Z,73.11
2022-10-07T20:19:11.593Z,73.49
2022-10-07T20:21:40.395Z,73.42
2022-10-07T20:24:10.259Z,73.79
2022-10-07T20:26:39.619Z,74.39
2022-10-07T20:29:10.338Z,74.79
2022-10-07T20:31:40.112Z,75.10
2022-10-07T20:34:09.857Z,75.63
2022-10-07T20:36:41.397Z,76.09
2022-10-07T20:39:34.137Z,76.29
2022-10-07T20:42:20.061Z,76.57
2022-10-07T20:44:49.338Z,76.30
2022-10-07T20:47:17.981Z,76.31
2022-10-07T20:49:48.361Z,76.11
2022-10-07T20:52:19.372Z,76.23
2022-10-07T20:54:49.285Z,75.98
2022-10-07T20:57:19.052Z,75.89
2022-10-07T20:59:47.326Z,75.99
2022-10-07T21:02:17.543Z,75.92
2022-10-07T21:04:47.140Z,76.39
2022-10-07T21:07:15.577Z,76.09
2022-10-07T21:09:43.654Z,76.16
2022-10-07T21:12:15.071Z,76.37
2022-10-07T21:14:44.322Z,76.82
2022-10-07T21:17:13.264Z,76.91
2022-10-07T21:19:41.862Z,77.27
2022-10-07T21:22:10.646Z,77.57
2022-10-07T21:24:38.747Z,77.72
2022-10-07T21:27:08.590Z,78.36
2022-10-07T21:29:40.986Z,78.42
2022-10-07T21:32:10.050Z,79.08
2022-10-07T21:34:38.531Z,79.46
2022-10-07T21:37:06.730Z,79.98
2022-10-07T21:39:34.900Z,80.01
2022-10-07T21:42:03.205Z,80.50
2022-10-07T21:44:33.469Z,80.92
2022-10-07T21:47:04.952Z,81.08
2022-10-07T21:49:33.172Z,81.64
2022-10-07T21:52:01.332Z,82.01
2022-10-07T21:54:30.391Z,82.29
2022-10-07T21:56:58.948Z,82.42
2022-10-07T21:59:27.214Z,82.74
2022-10-07T22:01:55.437Z,82.60
2022-10-07T22:04:25.168Z,82.71
2022-10-07T22:07:10.790Z,82.81
2022-10-07T22:09:38.943Z,82.45
2022-10-07T22:12:07.325Z,82.78
2022-10-07T22:14:35.554Z,83.43
2022-10-07T22:17:03.925Z,84.33
2022-10-07T22:19:33.405Z,84.76
2022-10-07T22:22:01.538Z,85.23
2022-10-07T22:24:29.895Z,85.30
2022-10-07T22:26:58.548Z,85.26
2022-10-07T22:29:26.992Z,85.63
2022-10-07T22:31:55.440Z,86.17
2022-10-07T22:34:42.517Z,86.75
2022-10-07T22:37:12.020Z,87.47
2022-10-07T22:39:41.214Z,87.68
2022-10-07T22:42:09.558Z,87.97
2022-10-07T22:44:37.654Z,87.73
2022-10-07T22:47:05.893Z,87.63
2022-10-07T22:49:33.991Z,87.87
2022-10-07T22:52:02.152Z,88.06
2022-10-07T22:54:31.623Z,88.30
2022-10-07T22:56:59.921Z,88.83
2022-10-07T22:59:28.037Z,89.03
2022-10-07T23:01:56.146Z,89.08
2022-10-07T23:04:24.278Z,89.36
2022-10-07T23:06:53.009Z,89.89
2022-10-07T23:09:21.131Z,90.39
2022-10-07T23:11:50.683Z,90.87
2022-10-07T23:14:19.127Z,91.43
2022-10-07T23:16:47.330Z,91.48
2022-10-07T23:19:15.494Z,91.88
2022-10-07T23:21:44.700Z,92.17
2022-10-07T23:24:14.663Z,92.50
2022-10-07T23:26:46.133Z,92.84
2022-10-07T23:29:15.865Z,93.11
2022-10-07T23:31:45.208Z,93.66
2022-10-07T23:34:13.926Z,94.54
2022-10-07T23:36:42.305Z,94.46
2022-10-07T23:39:10.459Z,94.51
2022-10-07T23:41:38.554Z,94.62
2022-10-07T23:44:07.041Z,95.18
2022-10-07T23:46:36.805Z,95.42
2022-10-07T23:49:05.428Z,96.09
2022-10-07T23:51:34.423Z,96.04
2022-10-07T23:54:04.431Z,96.45
2022-10-07T23:56:33.606Z,97.21
2022-10-07T23:59:02.688Z,97.64
